sensor_id;sensor_type;location;lat;lon;timestamp;pressure;altitude;pressure_sealevel;temperature;humidity
30873;BME280;17579;42.690;2.586;2023-04-04T00:00:33;96865.25;;;11.85;43.91
30873;BME280;17579;42.690;2.586;2023-04-04T00:02:58;96863.59;;;11.84;44.36
30873;BME280;17579;42.690;2.586;2023-04-04T00:05:27;96859.47;;;11.81;44.31
30873;BME280;17579;42.690;2.586;2023-04-04T00:08:04;96855.31;;;11.78;44.43
30873;BME280;17579;42.690;2.586;2023-04-04T00:11:02;96862.91;;;11.73;44.20
30873;BME280;17579;42.690;2.586;2023-04-04T00:13:37;96859.09;;;11.76;44.61
30873;BME280;17579;42.690;2.586;2023-04-04T00:16:07;96865.56;;;11.73;44.60
30873;BME280;17579;42.690;2.586;2023-04-04T00:18:32;96856.09;;;11.71;44.82
30873;BME280;17579;42.690;2.586;2023-04-04T00:21:01;96864.91;;;11.71;44.98
30873;BME280;17579;42.690;2.586;2023-04-04T00:23:37;96850.31;;;11.67;45.19
30873;BME280;17579;42.690;2.586;2023-04-04T00:26:05;96842.00;;;11.62;45.39
30873;BME280;17579;42.690;2.586;2023-04-04T00:28:33;96834.38;;;11.59;45.52
30873;BME280;17579;42.690;2.586;2023-04-04T00:31:45;96833.91;;;11.55;45.17
30873;BME280;17579;42.690;2.586;2023-04-04T00:33:56;96834.91;;;11.63;45.45
30873;BME280;17579;42.690;2.586;2023-04-04T00:36:27;96826.78;;;11.56;45.40
30873;BME280;17579;42.690;2.586;2023-04-04T00:39:01;96825.09;;;11.55;45.75
30873;BME280;17579;42.690;2.586;2023-04-04T00:41:32;96816.50;;;11.53;45.93
30873;BME280;17579;42.690;2.586;2023-04-04T00:44:10;96827.44;;;11.50;45.62
30873;BME280;17579;42.690;2.586;2023-04-04T00:46:36;96829.22;;;11.49;46.31
30873;BME280;17579;42.690;2.586;2023-04-04T00:49:13;96830.56;;;11.45;46.56
30873;BME280;17579;42.690;2.586;2023-04-04T00:51:38;96832.38;;;11.44;46.35
30873;BME280;17579;42.690;2.586;2023-04-04T00:54:07;96824.91;;;11.40;46.53
30873;BME280;17579;42.690;2.586;2023-04-04T00:59:12;96828.88;;;11.36;46.84
30873;BME280;17579;42.690;2.586;2023-04-04T01:04:37;96823.72;;;11.34;46.77
30873;BME280;17579;42.690;2.586;2023-04-04T01:07:07;96805.19;;;11.34;46.88
30873;BME280;17579;42.690;2.586;2023-04-04T01:09:33;96792.28;;;11.31;46.69
30873;BME280;17579;42.690;2.586;2023-04-04T01:12:01;96793.59;;;11.27;46.92
30873;BME280;17579;42.690;2.586;2023-04-04T01:14:27;96780.84;;;11.22;46.92
30873;BME280;17579;42.690;2.586;2023-04-04T01:16:56;96777.34;;;11.22;47.18
30873;BME280;17579;42.690;2.586;2023-04-04T01:19:40;96771.56;;;11.18;46.94
30873;BME280;17579;42.690;2.586;2023-04-04T01:22:08;96773.06;;;11.21;46.81
30873;BME280;17579;42.690;2.586;2023-04-04T01:24:46;96767.94;;;11.19;46.89
30873;BME280;17579;42.690;2.586;2023-04-04T01:27:15;96768.91;;;11.18;46.75
30873;BME280;17579;42.690;2.586;2023-04-04T01:29:46;96767.25;;;11.17;47.04
30873;BME280;17579;42.690;2.586;2023-04-04T01:32:18;96765.25;;;11.11;47.15
30873;BME280;17579;42.690;2.586;2023-04-04T01:34:51;96759.78;;;11.13;47.18
30873;BME280;17579;42.690;2.586;2023-04-04T01:37:42;96763.25;;;11.13;47.09
30873;BME280;17579;42.690;2.586;2023-04-04T01:42:38;96746.38;;;11.06;47.10
30873;BME280;17579;42.690;2.586;2023-04-04T01:45:09;96745.56;;;11.05;46.95
30873;BME280;17579;42.690;2.586;2023-04-04T01:47:38;96745.38;;;11.07;47.30
30873;BME280;17579;42.690;2.586;2023-04-04T01:50:06;96733.66;;;11.09;47.14
30873;BME280;17579;42.690;2.586;2023-04-04T01:52:34;96742.56;;;11.08;46.83
30873;BME280;17579;42.690;2.586;2023-04-04T01:55:13;96740.91;;;11.07;46.99
30873;BME280;17579;42.690;2.586;2023-04-04T01:57:50;96737.44;;;11.07;46.74
30873;BME280;17579;42.690;2.586;2023-04-04T02:00:16;96744.56;;;11.06;46.65
30873;BME280;17579;42.690;2.586;2023-04-04T02:02:43;96746.22;;;11.07;46.69
30873;BME280;17579;42.690;2.586;2023-04-04T02:05:08;96745.38;;;11.07;46.69
30873;BME280;17579;42.690;2.586;2023-04-04T02:07:46;96753.31;;;11.07;46.29
30873;BME280;17579;42.690;2.586;2023-04-04T02:10:11;96753.97;;;11.09;46.44
30873;BME280;17579;42.690;2.586;2023-04-04T02:12:46;96760.13;;;11.09;46.39
30873;BME280;17579;42.690;2.586;2023-04-04T02:15:12;96749.69;;;11.08;46.45
30873;BME280;17579;42.690;2.586;2023-04-04T02:17:46;96750.19;;;11.03;45.94
30873;BME280;17579;42.690;2.586;2023-04-04T02:20:16;96742.91;;;11.05;46.09
30873;BME280;17579;42.690;2.586;2023-04-04T02:25:24;96740.59;;;11.02;46.37
30873;BME280;17579;42.690;2.586;2023-04-04T02:27:52;96730.31;;;11.07;46.35
30873;BME280;17579;42.690;2.586;2023-04-04T02:30:18;96735.47;;;11.09;46.15
30873;BME280;17579;42.690;2.586;2023-04-04T02:32:44;96730.31;;;11.07;45.84
30873;BME280;17579;42.690;2.586;2023-04-04T02:35:11;96736.47;;;11.08;45.81
30873;BME280;17579;42.690;2.586;2023-04-04T02:37:43;96731.50;;;11.05;45.87
30873;BME280;17579;42.690;2.586;2023-04-04T02:40:13;96724.38;;;11.05;46.15
30873;BME280;17579;42.690;2.586;2023-04-04T02:42:46;96723.56;;;11.05;45.61
30873;BME280;17579;42.690;2.586;2023-04-04T02:45:11;96732.31;;;11.05;45.89
30873;BME280;17579;42.690;2.586;2023-04-04T02:47:41;96729.69;;;11.05;45.82
30873;BME280;17579;42.690;2.586;2023-04-04T02:50:11;96731.50;;;11.05;45.55
30873;BME280;17579;42.690;2.586;2023-04-04T02:52:36;96720.41;;;11.01;45.39
30873;BME280;17579;42.690;2.586;2023-04-04T02:55:03;96730.00;;;11.02;45.28
30873;BME280;17579;42.690;2.586;2023-04-04T02:57:29;96721.91;;;11.04;44.93
30873;BME280;17579;42.690;2.586;2023-04-04T02:59:59;96726.38;;;11.03;44.81
30873;BME280;17579;42.690;2.586;2023-04-04T03:02:33;96714.13;;;11.02;44.60
30873;BME280;17579;42.690;2.586;2023-04-04T03:04:59;96712.81;;;11.06;44.44
30873;BME280;17579;42.690;2.586;2023-04-04T03:07:37;96709.47;;;11.04;44.38
30873;BME280;17579;42.690;2.586;2023-04-04T03:10:07;96703.22;;;11.05;43.96
30873;BME280;17579;42.690;2.586;2023-04-04T03:12:36;96697.91;;;11.05;43.78
30873;BME280;17579;42.690;2.586;2023-04-04T03:15:07;96694.44;;;11.05;44.04
30873;BME280;17579;42.690;2.586;2023-04-04T03:17:32;96698.91;;;11.04;44.14
30873;BME280;17579;42.690;2.586;2023-04-04T03:19:58;96693.13;;;11.01;43.72
30873;BME280;17579;42.690;2.586;2023-04-04T03:22:27;96695.25;;;10.97;43.72
30873;BME280;17579;42.690;2.586;2023-04-04T03:24:56;96697.72;;;10.99;43.95
30873;BME280;17579;42.690;2.586;2023-04-04T03:27:24;96710.63;;;11.02;43.92
30873;BME280;17579;42.690;2.586;2023-04-04T03:29:50;96689.78;;;10.99;44.06
30873;BME280;17579;42.690;2.586;2023-04-04T03:32:16;96694.41;;;10.97;43.63
30873;BME280;17579;42.690;2.586;2023-04-04T03:37:31;96693.28;;;10.99;43.84
30873;BME280;17579;42.690;2.586;2023-04-04T03:39:59;96688.44;;;10.95;43.73
30873;BME280;17579;42.690;2.586;2023-04-04T03:42:32;96697.72;;;10.90;43.84
30873;BME280;17579;42.690;2.586;2023-04-04T03:45:16;96697.41;;;10.94;43.65
30873;BME280;17579;42.690;2.586;2023-04-04T03:47:49;96700.84;;;10.94;43.73
30873;BME280;17579;42.690;2.586;2023-04-04T03:50:18;96694.38;;;10.88;43.82
30873;BME280;17579;42.690;2.586;2023-04-04T03:52:43;96698.69;;;10.89;43.66
30873;BME280;17579;42.690;2.586;2023-04-04T03:55:23;96696.38;;;10.86;43.98
30873;BME280;17579;42.690;2.586;2023-04-04T03:57:49;96698.88;;;10.88;43.61
30873;BME280;17579;42.690;2.586;2023-04-04T04:00:16;96686.63;;;10.87;43.65
30873;BME280;17579;42.690;2.586;2023-04-04T04:02:44;96682.31;;;10.86;43.60
30873;BME280;17579;42.690;2.586;2023-04-04T04:05:23;96690.41;;;10.84;43.11
30873;BME280;17579;42.690;2.586;2023-04-04T04:07:49;96682.78;;;10.81;43.45
30873;BME280;17579;42.690;2.586;2023-04-04T04:13:03;96665.94;;;10.82;43.42
30873;BME280;17579;42.690;2.586;2023-04-04T04:15:31;96660.97;;;10.79;43.20
30873;BME280;17579;42.690;2.586;2023-04-04T04:17:57;96669.91;;;10.78;43.17
30873;BME280;17579;42.690;2.586;2023-04-04T04:20:28;96658.78;;;10.74;42.99
30873;BME280;17579;42.690;2.586;2023-04-04T04:23:04;96655.84;;;10.78;42.99
30873;BME280;17579;42.690;2.586;2023-04-04T04:25:52;96662.78;;;10.70;43.15
30873;BME280;17579;42.690;2.586;2023-04-04T04:28:21;96655.16;;;10.75;42.81
30873;BME280;17579;42.690;2.586;2023-04-04T04:30:53;96667.75;;;10.73;43.03
30873;BME280;17579;42.690;2.586;2023-04-04T04:33:27;96678.31;;;10.73;43.09
30873;BME280;17579;42.690;2.586;2023-04-04T04:36:04;96679.81;;;10.76;42.97
30873;BME280;17579;42.690;2.586;2023-04-04T04:38:33;96684.25;;;10.75;42.50
30873;BME280;17579;42.690;2.586;2023-04-04T04:41:00;96691.69;;;10.72;42.76
30873;BME280;17579;42.690;2.586;2023-04-04T04:43:29;96683.44;;;10.75;42.99
30873;BME280;17579;42.690;2.586;2023-04-04T04:45:54;96684.59;;;10.72;42.61
30873;BME280;17579;42.690;2.586;2023-04-04T04:48:26;96688.22;;;10.71;42.61
30873;BME280;17579;42.690;2.586;2023-04-04T04:50:54;96688.38;;;10.70;42.54
30873;BME280;17579;42.690;2.586;2023-04-04T04:53:29;96683.25;;;10.68;43.09
30873;BME280;17579;42.690;2.586;2023-04-04T04:55:57;96692.03;;;10.69;43.14
30873;BME280;17579;42.690;2.586;2023-04-04T04:58:23;96676.44;;;10.66;43.27
30873;BME280;17579;42.690;2.586;2023-04-04T05:00:53;96680.09;;;10.65;43.14
30873;BME280;17579;42.690;2.586;2023-04-04T05:03:31;96678.28;;;10.65;43.18
30873;BME280;17579;42.690;2.586;2023-04-04T05:06:01;96664.41;;;10.63;43.08
30873;BME280;17579;42.690;2.586;2023-04-04T05:08:34;96657.59;;;10.61;43.14
30873;BME280;17579;42.690;2.586;2023-04-04T05:11:07;96658.44;;;10.61;43.00
30873;BME280;17579;42.690;2.586;2023-04-04T05:13:53;96664.69;;;10.60;42.68
30873;BME280;17579;42.690;2.586;2023-04-04T05:16:21;96664.03;;;10.58;42.92
30873;BME280;17579;42.690;2.586;2023-04-04T05:18:47;96674.63;;;10.58;43.35
30873;BME280;17579;42.690;2.586;2023-04-04T05:21:12;96666.69;;;10.58;43.48
30873;BME280;17579;42.690;2.586;2023-04-04T05:23:41;96680.88;;;10.57;43.22
30873;BME280;17579;42.690;2.586;2023-04-04T05:26:08;96681.72;;;10.57;42.89
30873;BME280;17579;42.690;2.586;2023-04-04T05:28:36;96680.06;;;10.56;43.32
30873;BME280;17579;42.690;2.586;2023-04-04T05:31:07;96683.69;;;10.55;43.47
30873;BME280;17579;42.690;2.586;2023-04-04T05:33:36;96690.66;;;10.56;43.26
30873;BME280;17579;42.690;2.586;2023-04-04T05:36:04;96701.22;;;10.56;43.00
30873;BME280;17579;42.690;2.586;2023-04-04T05:38:43;96722.38;;;10.56;43.08
30873;BME280;17579;42.690;2.586;2023-04-04T05:41:11;96716.59;;;10.61;43.02
30873;BME280;17579;42.690;2.586;2023-04-04T05:43:37;96729.00;;;10.61;43.05
30873;BME280;17579;42.690;2.586;2023-04-04T05:46:05;96740.22;;;10.54;43.17
30873;BME280;17579;42.690;2.586;2023-04-04T05:48:34;96733.78;;;10.57;43.59
30873;BME280;17579;42.690;2.586;2023-04-04T05:51:02;96745.69;;;10.61;43.33
30873;BME280;17579;42.690;2.586;2023-04-04T05:53:28;96744.13;;;10.77;43.26
30873;BME280;17579;42.690;2.586;2023-04-04T05:55:54;96756.34;;;11.12;42.86
30873;BME280;17579;42.690;2.586;2023-04-04T05:58:23;96756.56;;;11.52;42.28
30873;BME280;17579;42.690;2.586;2023-04-04T06:00:49;96771.00;;;11.82;41.78
30873;BME280;17579;42.690;2.586;2023-04-04T06:03:14;96760.28;;;12.08;41.43
30873;BME280;17579;42.690;2.586;2023-04-04T06:05:43;96746.31;;;12.31;41.19
30873;BME280;17579;42.690;2.586;2023-04-04T06:08:09;96761.53;;;12.54;40.82
30873;BME280;17579;42.690;2.586;2023-04-04T06:10:41;96754.19;;;12.72;40.59
30873;BME280;17579;42.690;2.586;2023-04-04T06:16:22;96750.94;;;13.02;39.86
30873;BME280;17579;42.690;2.586;2023-04-04T06:18:48;96754.50;;;13.17;39.93
30873;BME280;17579;42.690;2.586;2023-04-04T06:21:13;96777.03;;;13.38;39.41
30873;BME280;17579;42.690;2.586;2023-04-04T06:23:42;96752.53;;;13.50;39.02
30873;BME280;17579;42.690;2.586;2023-04-04T06:26:08;96762.06;;;13.68;38.67
30873;BME280;17579;42.690;2.586;2023-04-04T06:28:34;96774.53;;;13.91;38.50
30873;BME280;17579;42.690;2.586;2023-04-04T06:30:59;96775.69;;;14.11;38.24
30873;BME280;17579;42.690;2.586;2023-04-04T06:33:33;96771.22;;;14.27;37.71
30873;BME280;17579;42.690;2.586;2023-04-04T06:35:58;96770.88;;;14.45;37.52
30873;BME280;17579;42.690;2.586;2023-04-04T06:38:24;96784.50;;;14.65;37.32
30873;BME280;17579;42.690;2.586;2023-04-04T06:41:11;96778.44;;;14.71;36.83
30873;BME280;17579;42.690;2.586;2023-04-04T06:43:44;96778.81;;;14.68;36.96
30873;BME280;17579;42.690;2.586;2023-04-04T06:46:16;96773.50;;;14.68;36.71
30873;BME280;17579;42.690;2.586;2023-04-04T06:48:42;96783.50;;;14.81;36.17
30873;BME280;17579;42.690;2.586;2023-04-04T06:51:11;96790.22;;;14.92;36.21
30873;BME280;17579;42.690;2.586;2023-04-04T06:53:43;96787.63;;;14.98;36.11
30873;BME280;17579;42.690;2.586;2023-04-04T06:56:11;96783.44;;;14.89;35.80
30873;BME280;17579;42.690;2.586;2023-04-04T06:58:39;96790.22;;;14.62;36.45
30873;BME280;17579;42.690;2.586;2023-04-04T07:01:20;96783.56;;;14.43;36.46
30873;BME280;17579;42.690;2.586;2023-04-04T07:03:46;96767.63;;;14.19;36.39
30873;BME280;17579;42.690;2.586;2023-04-04T07:06:12;96778.22;;;14.04;36.10
30873;BME280;17579;42.690;2.586;2023-04-04T07:08:48;96776.97;;;14.15;36.83
30873;BME280;17579;42.690;2.586;2023-04-04T07:11:13;96782.63;;;14.35;36.47
30873;BME280;17579;42.690;2.586;2023-04-04T07:13:39;96776.72;;;14.63;36.20
30873;BME280;17579;42.690;2.586;2023-04-04T07:16:28;96782.31;;;15.13;35.73
30873;BME280;17579;42.690;2.586;2023-04-04T07:18:56;96769.63;;;15.15;35.40
30873;BME280;17579;42.690;2.586;2023-04-04T07:21:24;96768.94;;;14.92;35.57
30873;BME280;17579;42.690;2.586;2023-04-04T07:24:14;96771.53;;;14.47;35.34
30873;BME280;17579;42.690;2.586;2023-04-04T07:26:46;96779.22;;;14.27;35.75
30873;BME280;17579;42.690;2.586;2023-04-04T07:29:18;96785.66;;;14.09;36.19
30873;BME280;17579;42.690;2.586;2023-04-04T07:31:48;96779.66;;;13.92;36.24
30873;BME280;17579;42.690;2.586;2023-04-04T07:34:16;96781.69;;;13.82;36.26
30873;BME280;17579;42.690;2.586;2023-04-04T07:36:46;96788.63;;;13.68;36.83
30873;BME280;17579;42.690;2.586;2023-04-04T07:39:12;96792.09;;;13.68;37.35
30873;BME280;17579;42.690;2.586;2023-04-04T07:41:38;96787.19;;;13.57;37.12
30873;BME280;17579;42.690;2.586;2023-04-04T07:44:09;96783.56;;;13.50;37.11
30873;BME280;17579;42.690;2.586;2023-04-04T07:46:37;96794.19;;;13.50;37.19
30873;BME280;17579;42.690;2.586;2023-04-04T07:49:03;96795.22;;;13.49;37.07
30873;BME280;17579;42.690;2.586;2023-04-04T07:51:31;96790.59;;;13.43;37.39
30873;BME280;17579;42.690;2.586;2023-04-04T07:53:59;96794.72;;;13.45;36.54
30873;BME280;17579;42.690;2.586;2023-04-04T07:56:26;96793.06;;;13.44;38.04
30873;BME280;17579;42.690;2.586;2023-04-04T07:58:52;96794.03;;;13.51;37.34
30873;BME280;17579;42.690;2.586;2023-04-04T08:01:18;96792.16;;;13.60;36.98
30873;BME280;17579;42.690;2.586;2023-04-04T08:03:44;96796.19;;;13.79;36.82
30873;BME280;17579;42.690;2.586;2023-04-04T08:06:12;96779.44;;;14.17;36.84
30873;BME280;17579;42.690;2.586;2023-04-04T08:08:58;96789.25;;;14.40;36.91
30873;BME280;17579;42.690;2.586;2023-04-04T08:11:24;96792.97;;;14.68;35.85
30873;BME280;17579;42.690;2.586;2023-04-04T08:13:50;96792.97;;;14.83;35.03
30873;BME280;17579;42.690;2.586;2023-04-04T08:16:19;96794.63;;;14.99;35.42
30873;BME280;17579;42.690;2.586;2023-04-04T08:18:50;96789.03;;;15.09;35.71
30873;BME280;17579;42.690;2.586;2023-04-04T08:21:17;96799.66;;;15.24;34.39
30873;BME280;17579;42.690;2.586;2023-04-04T08:23:46;96791.75;;;15.31;35.03
30873;BME280;17579;42.690;2.586;2023-04-04T08:26:12;96783.09;;;15.44;34.68
30873;BME280;17579;42.690;2.586;2023-04-04T08:28:38;96796.41;;;15.44;34.54
30873;BME280;17579;42.690;2.586;2023-04-04T08:31:04;96805.69;;;15.48;34.66
30873;BME280;17579;42.690;2.586;2023-04-04T08:33:35;96809.53;;;15.45;34.61
30873;BME280;17579;42.690;2.586;2023-04-04T08:36:04;96815.97;;;15.51;34.91
30873;BME280;17579;42.690;2.586;2023-04-04T08:38:33;96815.16;;;15.50;35.34
30873;BME280;17579;42.690;2.586;2023-04-04T08:41:09;96810.94;;;15.41;36.31
30873;BME280;17579;42.690;2.586;2023-04-04T08:43:42;96809.09;;;15.41;36.28
30873;BME280;17579;42.690;2.586;2023-04-04T08:46:11;96816.97;;;15.50;36.41
30873;BME280;17579;42.690;2.586;2023-04-04T08:51:29;96812.13;;;15.38;36.80
30873;BME280;17579;42.690;2.586;2023-04-04T08:53:59;96802.69;;;15.36;36.52
30873;BME280;17579;42.690;2.586;2023-04-04T08:56:33;96811.94;;;15.40;36.92
30873;BME280;17579;42.690;2.586;2023-04-04T09:02:13;96804.78;;;15.40;36.54
30873;BME280;17579;42.690;2.586;2023-04-04T09:04:42;96816.00;;;15.36;36.94
30873;BME280;17579;42.690;2.586;2023-04-04T09:07:12;96824.19;;;15.34;37.19
30873;BME280;17579;42.690;2.586;2023-04-04T09:09:39;96815.06;;;15.44;37.55
30873;BME280;17579;42.690;2.586;2023-04-04T09:12:08;96813.50;;;15.49;37.70
30873;BME280;17579;42.690;2.586;2023-04-04T09:14:40;96799.78;;;15.52;37.68
30873;BME280;17579;42.690;2.586;2023-04-04T09:17:07;96812.31;;;15.52;37.07
30873;BME280;17579;42.690;2.586;2023-04-04T09:22:26;96803.72;;;15.56;37.07
30873;BME280;17579;42.690;2.586;2023-04-04T09:24:51;96791.69;;;15.61;36.76
30873;BME280;17579;42.690;2.586;2023-04-04T09:27:17;96790.03;;;15.59;36.50
30873;BME280;17579;42.690;2.586;2023-04-04T09:29:43;96780.56;;;15.57;36.63
30873;BME280;17579;42.690;2.586;2023-04-04T09:32:14;96799.41;;;15.55;37.14
30873;BME280;17579;42.690;2.586;2023-04-04T09:34:41;96796.56;;;15.57;37.14
30873;BME280;17579;42.690;2.586;2023-04-04T09:37:08;96792.31;;;15.63;36.96
30873;BME280;17579;42.690;2.586;2023-04-04T09:39:40;96787.06;;;15.69;36.91
30873;BME280;17579;42.690;2.586;2023-04-04T09:42:13;96792.28;;;15.77;36.80
30873;BME280;17579;42.690;2.586;2023-04-04T09:44:39;96802.41;;;15.82;36.29
30873;BME280;17579;42.690;2.586;2023-04-04T09:49:58;96797.97;;;15.89;36.75
30873;BME280;17579;42.690;2.586;2023-04-04T09:52:29;96809.22;;;16.06;36.07
30873;BME280;17579;42.690;2.586;2023-04-04T09:54:57;96793.00;;;16.08;36.32
30873;BME280;17579;42.690;2.586;2023-04-04T09:57:33;96807.03;;;16.17;35.95
30873;BME280;17579;42.690;2.586;2023-04-04T10:00:05;96826.16;;;16.20;35.51
30873;BME280;17579;42.690;2.586;2023-04-04T10:05:33;96822.38;;;16.36;35.30
30873;BME280;17579;42.690;2.586;2023-04-04T10:07:59;96817.97;;;16.43;34.94
30873;BME280;17579;42.690;2.586;2023-04-04T10:10:28;96816.28;;;16.42;34.62
30873;BME280;17579;42.690;2.586;2023-04-04T10:12:59;96817.75;;;16.45;35.20
30873;BME280;17579;42.690;2.586;2023-04-04T10:15:37;96822.38;;;16.58;35.32
30873;BME280;17579;42.690;2.586;2023-04-04T10:18:02;96817.28;;;16.63;35.29
30873;BME280;17579;42.690;2.586;2023-04-04T10:20:29;96814.00;;;16.68;35.43
30873;BME280;17579;42.690;2.586;2023-04-04T10:22:57;96807.91;;;16.74;35.03
30873;BME280;17579;42.690;2.586;2023-04-04T10:25:23;96814.31;;;16.79;34.51
30873;BME280;17579;42.690;2.586;2023-04-04T10:27:49;96822.34;;;16.86;34.59
30873;BME280;17579;42.690;2.586;2023-04-04T10:30:20;96821.28;;;16.80;34.80
30873;BME280;17579;42.690;2.586;2023-04-04T10:33:09;96820.44;;;17.02;35.36
30873;BME280;17579;42.690;2.586;2023-04-04T10:35:52;96825.03;;;17.14;34.95
30873;BME280;17579;42.690;2.586;2023-04-04T10:38:28;96805.31;;;17.22;34.91
30873;BME280;17579;42.690;2.586;2023-04-04T10:41:01;96816.25;;;17.27;34.40
30873;BME280;17579;42.690;2.586;2023-04-04T10:43:39;96821.81;;;17.26;34.31
30873;BME280;17579;42.690;2.586;2023-04-04T10:46:14;96814.78;;;17.25;34.51
30873;BME280;17579;42.690;2.586;2023-04-04T10:48:42;96823.06;;;17.37;33.38
30873;BME280;17579;42.690;2.586;2023-04-04T10:51:16;96811.19;;;17.46;34.19
30873;BME280;17579;42.690;2.586;2023-04-04T10:53:42;96827.25;;;17.53;34.03
30873;BME280;17579;42.690;2.586;2023-04-04T10:56:14;96826.47;;;17.59;33.87
30873;BME280;17579;42.690;2.586;2023-04-04T11:01:49;96823.81;;;17.65;33.26
30873;BME280;17579;42.690;2.586;2023-04-04T11:04:32;96838.22;;;17.71;33.24
30873;BME280;17579;42.690;2.586;2023-04-04T11:07:14;96833.06;;;17.70;32.59
30873;BME280;17579;42.690;2.586;2023-04-04T11:09:44;96818.28;;;17.74;32.18
30873;BME280;17579;42.690;2.586;2023-04-04T11:15:13;96833.34;;;17.81;32.67
30873;BME280;17579;42.690;2.586;2023-04-04T11:17:59;96835.38;;;17.79;32.61
30873;BME280;17579;42.690;2.586;2023-04-04T11:20:38;96835.63;;;17.91;32.45
30873;BME280;17579;42.690;2.586;2023-04-04T11:23:17;96834.84;;;17.97;31.69
30873;BME280;17579;42.690;2.586;2023-04-04T11:25:49;96844.09;;;17.95;32.06
30873;BME280;17579;42.690;2.586;2023-04-04T11:30:47;96846.38;;;18.11;31.43
30873;BME280;17579;42.690;2.586;2023-04-04T11:35:45;96830.78;;;18.28;30.04
30873;BME280;17579;42.690;2.586;2023-04-04T11:38:19;96838.00;;;18.28;30.73
30873;BME280;17579;42.690;2.586;2023-04-04T11:43:13;96843.34;;;18.41;30.04
30873;BME280;17579;42.690;2.586;2023-04-04T11:45:42;96849.97;;;18.52;30.26
30873;BME280;17579;42.690;2.586;2023-04-04T11:48:09;96847.91;;;18.61;29.05
30873;BME280;17579;42.690;2.586;2023-04-04T11:50:39;96836.75;;;18.64;28.91
30873;BME280;17579;42.690;2.586;2023-04-04T11:53:09;96842.97;;;18.58;28.77
30873;BME280;17579;42.690;2.586;2023-04-04T11:55:40;96852.03;;;18.63;27.63
30873;BME280;17579;42.690;2.586;2023-04-04T11:58:13;96847.47;;;18.57;26.70
30873;BME280;17579;42.690;2.586;2023-04-04T12:00:40;96845.84;;;18.49;26.02
30873;BME280;17579;42.690;2.586;2023-04-04T12:03:14;96840.25;;;18.44;26.17
30873;BME280;17579;42.690;2.586;2023-04-04T12:05:43;96854.25;;;18.40;26.73
30873;BME280;17579;42.690;2.586;2023-04-04T12:08:19;96839.00;;;18.40;25.71
30873;BME280;17579;42.690;2.586;2023-04-04T12:10:52;96833.66;;;18.40;26.10
30873;BME280;17579;42.690;2.586;2023-04-04T12:13:28;96841.09;;;18.45;25.62
30873;BME280;17579;42.690;2.586;2023-04-04T12:18:36;96828.50;;;18.59;25.73
30873;BME280;17579;42.690;2.586;2023-04-04T12:21:06;96835.53;;;18.60;25.96
30873;BME280;17579;42.690;2.586;2023-04-04T12:23:35;96837.38;;;18.73;26.54
30873;BME280;17579;42.690;2.586;2023-04-04T12:26:05;96833.25;;;18.77;26.72
30873;BME280;17579;42.690;2.586;2023-04-04T12:28:31;96839.63;;;18.82;26.70
30873;BME280;17579;42.690;2.586;2023-04-04T12:31:05;96844.63;;;18.92;27.01
30873;BME280;17579;42.690;2.586;2023-04-04T12:33:32;96842.13;;;18.97;25.85
30873;BME280;17579;42.690;2.586;2023-04-04T12:36:08;96841.09;;;18.92;26.19
30873;BME280;17579;42.690;2.586;2023-04-04T12:38:54;96840.28;;;18.91;26.08
30873;BME280;17579;42.690;2.586;2023-04-04T12:41:23;96852.66;;;18.92;25.40
30873;BME280;17579;42.690;2.586;2023-04-04T12:43:49;96817.59;;;18.87;25.17
30873;BME280;17579;42.690;2.586;2023-04-04T12:46:17;96837.56;;;18.84;24.96
30873;BME280;17579;42.690;2.586;2023-04-04T12:49:04;96837.59;;;18.78;26.22
30873;BME280;17579;42.690;2.586;2023-04-04T12:51:36;96853.47;;;18.79;26.06
30873;BME280;17579;42.690;2.586;2023-04-04T12:54:03;96844.59;;;18.72;25.86
30873;BME280;17579;42.690;2.586;2023-04-04T12:56:34;96849.97;;;18.72;26.43
30873;BME280;17579;42.690;2.586;2023-04-04T12:59:02;96850.97;;;18.84;27.36
30873;BME280;17579;42.690;2.586;2023-04-04T13:01:30;96852.66;;;18.92;27.84
30873;BME280;17579;42.690;2.586;2023-04-04T13:04:00;96847.28;;;18.92;28.07
30873;BME280;17579;42.690;2.586;2023-04-04T13:06:29;96854.09;;;18.88;28.83
30873;BME280;17579;42.690;2.586;2023-04-04T13:09:18;96853.47;;;18.79;28.88
30873;BME280;17579;42.690;2.586;2023-04-04T13:12:06;96860.03;;;18.77;28.69
30873;BME280;17579;42.690;2.586;2023-04-04T13:17:13;96862.91;;;18.82;29.45
30873;BME280;17579;42.690;2.586;2023-04-04T13:19:59;96862.53;;;19.05;28.82
30873;BME280;17579;42.690;2.586;2023-04-04T13:22:33;96855.28;;;19.19;28.49
30873;BME280;17579;42.690;2.586;2023-04-04T13:24:59;96863.25;;;19.46;28.10
30873;BME280;17579;42.690;2.586;2023-04-04T13:27:28;96850.78;;;19.71;28.03
30873;BME280;17579;42.690;2.586;2023-04-04T13:30:07;96855.00;;;19.99;26.80
30873;BME280;17579;42.690;2.586;2023-04-04T13:32:36;96856.41;;;20.40;26.68
30873;BME280;17579;42.690;2.586;2023-04-04T13:35:25;96854.97;;;20.70;26.65
30873;BME280;17579;42.690;2.586;2023-04-04T13:38:12;96861.84;;;21.09;27.02
30873;BME280;17579;42.690;2.586;2023-04-04T13:40:41;96864.47;;;21.35;26.26
30873;BME280;17579;42.690;2.586;2023-04-04T13:43:10;96864.34;;;21.48;25.58
30873;BME280;17579;42.690;2.586;2023-04-04T13:45:50;96843.72;;;21.60;25.90
30873;BME280;17579;42.690;2.586;2023-04-04T13:48:17;96861.28;;;21.82;25.64
30873;BME280;17579;42.690;2.586;2023-04-04T13:50:45;96855.28;;;21.98;25.40
30873;BME280;17579;42.690;2.586;2023-04-04T13:53:23;96841.13;;;22.03;25.54
30873;BME280;17579;42.690;2.586;2023-04-04T13:56:05;96845.19;;;21.93;25.78
30873;BME280;17579;42.690;2.586;2023-04-04T13:58:42;96843.59;;;22.04;25.01
30873;BME280;17579;42.690;2.586;2023-04-04T14:01:17;96837.38;;;22.04;24.91
30873;BME280;17579;42.690;2.586;2023-04-04T14:03:52;96842.63;;;21.98;24.99
30873;BME280;17579;42.690;2.586;2023-04-04T14:06:21;96822.38;;;21.96;25.00
30873;BME280;17579;42.690;2.586;2023-04-04T14:08:52;96835.78;;;21.84;24.88
30873;BME280;17579;42.690;2.586;2023-04-04T14:11:38;96825.16;;;21.89;24.88